Time;durP1;ratioP1;P1;durP2;ratioP2;P2;SDS_P1;SDS_P2;PMS_P1;PMS_P2;Temp;Humidity;BMP_temperature;BMP_pressure;BME280_temperature;BME280_humidity;BME280_pressure;Samples;Min_cycle;Max_cycle;Signal;HPM_P1;HPM_P2
2023/07/13 00:04:11;;;;;;;9.63;3.22;;;;;;;20.50;100.00;100242.00;4997861;57;1141079;-71
2023/07/13 00:09:18;;;;;;;5.28;2.98;;;;;;;20.25;100.00;100234.27;5017709;57;1140934;-72
2023/07/13 00:14:26;;;;;;;8.68;3.45;;;;;;;20.15;100.00;100253.87;4997894;57;1141006;-72
2023/07/13 00:19:32;;;;;;;5.37;3.12;;;;;;;20.23;100.00;100263.66;4998228;57;1141198;-72
2023/07/13 00:24:41;;;;;;;3.25;2.87;;;;;;;20.31;100.00;100265.75;4946408;58;1140966;-72
2023/07/13 00:29:45;;;;;;;5.87;3.35;;;;;;;20.21;100.00;100285.84;4914359;58;1140832;-71
2023/07/13 00:34:51;;;;;;;7.97;4.47;;;;;;;19.93;100.00;100305.30;4913210;58;1141188;-71
2023/07/13 00:39:57;;;;;;;6.37;3.60;;;;;;;19.67;100.00;100308.94;4935074;58;1140972;-72
2023/07/13 00:45:06;;;;;;;8.10;4.47;;;;;;;19.56;100.00;100326.29;4916030;58;1140893;-72
2023/07/13 00:50:15;;;;;;;4.97;4.12;;;;;;;19.50;100.00;100313.62;4915529;58;1140969;-71
2023/07/13 00:55:23;;;;;;;5.30;3.80;;;;;;;19.60;100.00;100302.12;4972258;58;1140794;-72
2023/07/13 01:00:31;;;;;;;7.70;4.10;;;;;;;19.65;100.00;100297.55;4997227;57;1140788;-72
2023/07/13 01:05:38;;;;;;;8.80;4.10;;;;;;;19.70;100.00;100301.04;4997355;58;1140969;-71
2023/07/13 01:10:56;;;;;;;14.18;4.35;;;;;;;19.47;100.00;100304.56;4991258;58;1140908;-71
2023/07/13 01:16:08;;;;;;;8.85;4.17;;;;;;;19.51;100.00;100295.17;4917210;58;1143005;-71
2023/07/13 01:21:13;;;;;;;9.23;3.77;;;;;;;19.60;100.00;100307.98;4917640;58;1141060;-72
2023/07/13 01:26:19;;;;;;;4.96;3.78;;;;;;;19.35;100.00;100302.50;4936290;58;1140900;-72
2023/07/13 01:31:25;;;;;;;3.92;3.33;;;;;;;19.10;100.00;100316.59;4914091;58;1141036;-72
2023/07/13 01:36:31;;;;;;;6.67;4.20;;;;;;;18.93;100.00;100319.92;4916346;58;1140871;-71
2023/07/13 01:41:37;;;;;;;7.40;4.47;;;;;;;18.81;100.00;100314.61;4917511;58;1141040;-71
2023/07/13 01:46:43;;;;;;;8.23;4.00;;;;;;;18.81;100.00;100314.61;4936534;58;1141309;-72
2023/07/13 01:51:49;;;;;;;5.85;3.80;;;;;;;18.70;100.00;100314.52;4927850;58;1140516;-71
2023/07/13 01:56:55;;;;;;;7.05;3.92;;;;;;;18.67;100.00;100314.86;4970693;57;1140941;-72
2023/07/13 02:02:00;;;;;;;6.35;4.47;;;;;;;18.58;100.00;100309.20;5029794;57;1140705;-71
2023/07/13 02:07:06;;;;;;;7.45;4.50;;;;;;;18.69;100.00;100305.31;5009889;57;1140704;-71
2023/07/13 02:12:12;;;;;;;6.78;4.30;;;;;;;18.93;100.00;100299.81;5010288;57;1141088;-71
2023/07/13 02:17:18;;;;;;;12.90;5.15;;;;;;;19.16;100.00;100291.75;5029879;57;1140978;-71
2023/07/13 02:22:24;;;;;;;7.34;4.72;;;;;;;19.30;100.00;100286.94;5009804;57;1175236;-73
2023/07/13 02:27:30;;;;;;;6.97;4.78;;;;;;;19.34;100.00;100280.21;4996345;57;1232511;-71
2023/07/13 02:32:35;;;;;;;7.15;4.95;;;;;;;19.24;100.00;100285.84;4945956;57;1141135;-71
2023/07/13 02:37:41;;;;;;;13.83;5.22;;;;;;;19.36;100.00;100282.72;4949090;58;1141005;-72
2023/07/13 02:42:46;;;;;;;6.70;4.85;;;;;;;19.36;100.00;100292.10;4929624;58;1142933;-71
2023/07/13 02:47:52;;;;;;;9.35;6.10;;;;;;;19.36;100.00;100290.25;4929625;58;1140915;-71
2023/07/13 02:52:58;;;;;;;7.15;4.60;;;;;;;19.23;100.00;100286.02;4938968;58;1241304;-71
2023/07/13 02:58:04;;;;;;;10.32;5.08;;;;;;;19.22;100.00;100293.22;4975373;58;1240999;-71
2023/07/13 03:03:10;;;;;;;9.25;4.40;;;;;;;19.14;100.00;100304.50;4970533;58;1243629;-74
2023/07/13 03:08:15;;;;;;;7.30;4.25;;;;;;;18.98;100.00;100310.81;4936661;58;1140736;-74
2023/07/13 03:13:21;;;;;;;6.40;4.53;;;;;;;18.80;100.00;100309.76;4916762;58;1168324;-74
2023/07/13 03:18:29;;;;;;;4.53;4.12;;;;;;;18.83;100.00;100303.22;4917441;58;1140929;-74
2023/07/13 03:23:36;;;;;;;6.62;4.40;;;;;;;18.77;100.00;100301.27;4917874;58;1141068;-74
2023/07/13 03:28:43;;;;;;;6.97;3.92;;;;;;;18.70;100.00;100312.34;4935527;58;1141028;-73
2023/07/13 03:33:50;;;;;;;10.93;3.83;;;;;;;18.63;100.00;100310.89;4912076;58;1235592;-73
2023/07/13 03:39:00;;;;;;;10.80;4.37;;;;;;;18.57;100.00;100304.86;4911621;58;1228296;-73
2023/07/13 03:44:07;;;;;;;4.90;4.33;;;;;;;18.54;100.00;100308.72;4927803;57;1237322;-73
2023/07/13 03:49:13;;;;;;;8.08;5.56;;;;;;;18.60;100.00;100303.20;4911096;58;1257278;-74
2023/07/13 03:54:19;;;;;;;13.58;5.17;;;;;;;18.80;100.00;100295.02;4941510;57;1230708;-74
2023/07/13 03:59:26;;;;;;;14.26;5.64;;;;;;;18.98;100.00;100304.95;5036501;58;1244213;-75
2023/07/13 04:04:32;;;;;;;18.70;11.10;;;;;;;18.95;100.00;100316.02;4986961;56;1245554;-74
2023/07/13 04:09:38;;;;;;;9.33;6.25;;;;;;;18.99;100.00;100320.53;5002478;58;1249204;-74
2023/07/13 04:14:43;;;;;;;8.65;6.20;;;;;;;19.19;100.00;100328.94;5015909;57;1247276;-74
2023/07/13 04:19:49;;;;;;;10.72;5.85;;;;;;;19.33;100.00;100326.81;5007374;57;1247961;-73
2023/07/13 04:24:55;;;;;;;8.85;5.60;;;;;;;19.37;100.00;100336.68;4996048;57;1252166;-73
2023/07/13 04:30:00;;;;;;;6.33;4.30;;;;;;;19.33;100.00;100338.37;4996898;57;1141244;-73
2023/07/13 04:35:07;;;;;;;5.65;5.15;;;;;;;19.26;100.00;100348.14;5008562;57;1241903;-72
2023/07/13 04:40:13;;;;;;;11.20;4.97;;;;;;;19.19;100.00;100357.09;5003326;57;1243167;-73
2023/07/13 04:45:19;;;;;;;8.68;4.95;;;;;;;19.11;100.00;100359.81;5026991;57;1257688;-73
2023/07/13 04:50:24;;;;;;;10.05;6.42;;;;;;;19.03;100.00;100366.08;5050026;57;1262200;-73
2023/07/13 04:55:30;;;;;;;10.93;6.40;;;;;;;19.08;100.00;100367.73;5027215;56;1142916;-73
2023/07/13 05:00:36;;;;;;;8.03;5.73;;;;;;;19.21;100.00;100365.80;4979674;56;1143070;-74
2023/07/13 05:05:41;;;;;;;11.05;6.20;;;;;;;19.21;100.00;100365.80;4991988;57;1140789;-74
2023/07/13 05:10:47;;;;;;;7.50;5.80;;;;;;;19.38;100.00;100358.47;4992746;57;1258739;-74
2023/07/13 05:16:03;;;;;;;12.65;4.67;;;;;;;19.61;100.00;100359.29;4976835;57;1140724;-74
2023/07/13 05:21:11;;;;;;;9.80;4.83;;;;;;;19.84;100.00;100372.68;5011696;57;1143094;-73
2023/07/13 05:26:17;;;;;;;11.90;5.20;;;;;;;20.07;100.00;100374.78;5005509;57;1152553;-74
2023/07/13 05:31:22;;;;;;;6.87;3.65;;;;;;;20.30;100.00;100363.46;4983334;57;1142994;-73
2023/07/13 05:36:28;;;;;;;10.30;4.05;;;;;;;20.56;100.00;100377.78;4970958;57;1237026;-74
2023/07/13 05:41:33;;;;;;;6.97;4.25;;;;;;;20.74;100.00;100388.14;5005049;57;1143029;-74
2023/07/13 05:46:39;;;;;;;7.08;4.20;;;;;;;20.73;100.00;100394.53;4972658;57;1140963;-73
2023/07/13 05:51:44;;;;;;;12.20;4.42;;;;;;;20.68;100.00;100391.56;5002313;57;1141104;-73
2023/07/13 05:56:50;;;;;;;15.10;4.20;;;;;;;20.73;100.00;100382.95;4994008;57;1142994;-73
2023/07/13 06:01:56;;;;;;;9.88;3.98;;;;;;;20.73;100.00;100385.63;4974964;57;1142787;-74
2023/07/13 06:07:01;;;;;;;4.28;3.00;;;;;;;20.76;100.00;100388.78;4996849;57;1140997;-74
2023/07/13 06:12:08;;;;;;;6.22;3.92;;;;;;;20.80;100.00;100403.49;5001625;57;1141008;-73
2023/07/13 06:17:13;;;;;;;12.23;4.22;;;;;;;20.86;100.00;100408.64;4996872;57;1140817;-73
2023/07/13 06:22:19;;;;;;;6.70;4.22;;;;;;;20.89;100.00;100409.61;4980615;57;1142992;-73
2023/07/13 06:27:26;;;;;;;8.34;4.22;;;;;;;20.92;100.00;100417.31;4970932;57;1140966;-74
2023/07/13 06:32:32;;;;;;;8.93;3.52;;;;;;;20.93;100.00;100421.13;5011476;57;1141146;-73
2023/07/13 06:37:37;;;;;;;3.98;3.47;;;;;;;20.95;100.00;100436.56;4997065;57;1141053;-73
2023/07/13 06:42:43;;;;;;;6.85;4.05;;;;;;;20.92;100.00;100442.85;4994481;57;1141156;-74
2023/07/13 06:47:49;;;;;;;5.62;4.35;;;;;;;20.97;100.00;100443.09;5016452;57;1140908;-73
2023/07/13 06:52:55;;;;;;;6.25;3.70;;;;;;;21.04;100.00;100446.72;4991775;57;1140840;-74
2023/07/13 06:58:00;;;;;;;8.83;4.75;;;;;;;21.01;100.00;100454.64;5000067;57;1141240;-74
2023/07/13 07:03:06;;;;;;;10.32;4.72;;;;;;;20.99;100.00;100456.69;5010151;57;1140947;-75
2023/07/13 07:08:11;;;;;;;12.00;5.37;;;;;;;20.99;100.00;100458.54;4999291;56;1143195;-73
2023/07/13 07:13:17;;;;;;;8.03;4.05;;;;;;;20.96;100.00;100457.56;5044200;56;1143201;-73
2023/07/13 07:18:23;;;;;;;9.45;4.45;;;;;;;21.03;100.00;100458.49;5070738;56;1140898;-74
2023/07/13 07:23:29;;;;;;;7.67;3.87;;;;;;;21.26;100.00;100460.55;5058942;56;1141005;-74
2023/07/13 07:28:35;;;;;;;15.72;4.25;;;;;;;21.56;100.00;100463.14;5028387;57;1141066;-74
2023/07/13 07:33:41;;;;;;;8.05;3.90;;;;;;;21.82;100.00;100466.11;5054051;57;1143091;-72
2023/07/13 07:38:46;;;;;;;3.47;3.08;;;;;;;22.16;100.00;100461.84;5045038;56;1140904;-72
2023/07/13 07:43:52;;;;;;;5.95;4.08;;;;;;;22.42;100.00;100458.84;5048886;56;1140952;-74
2023/07/13 07:48:58;;;;;;;6.58;3.25;;;;;;;22.51;100.00;100460.02;5073811;57;1141295;-73
2023/07/13 07:54:05;;;;;;;9.15;3.50;;;;;;;22.69;100.00;100458.48;5026701;56;1140767;-73
2023/07/13 07:59:10;;;;;;;3.47;2.70;;;;;;;22.96;100.00;100446.49;5050824;56;1141128;-72
2023/07/13 08:04:16;;;;;;;6.10;3.15;;;;;;;23.24;100.00;100450.42;5004291;57;1140960;-74
2023/07/13 08:09:22;;;;;;;8.25;3.35;;;;;;;23.48;100.00;100448.53;4998182;57;1141187;-75
2023/07/13 08:14:27;;;;;;;4.28;1.62;;;;;;;23.61;100.00;100451.28;4998006;57;1141121;-74
2023/07/13 08:19:33;;;;;;;3.75;1.90;;;;;;;23.80;100.00;100455.05;4997295;57;1141058;-75
2023/07/13 08:24:39;;;;;;;5.10;1.50;;;;;;;24.02;100.00;100445.69;4938659;58;1141238;-75
2023/07/13 08:29:44;;;;;;;6.42;1.90;;;;;;;24.17;100.00;100446.31;4981372;57;1140981;-72
2023/07/13 08:34:50;;;;;;;4.78;1.72;;;;;;;24.19;100.00;100448.80;4997453;57;1141050;-75
2023/07/13 08:39:56;;;;;;;6.25;1.82;;;;;;;24.40;100.00;100455.89;4948781;58;1141140;-72
2023/07/13 08:45:11;;;;;;;6.72;2.25;;;;;;;24.55;100.00;100461.89;4997502;57;1140920;-74
2023/07/13 08:50:20;;;;;;;6.00;1.92;;;;;;;24.77;100.00;100455.16;4942057;57;1141086;-74
2023/07/13 08:55:36;;;;;;;5.48;2.24;;;;;;;25.03;100.00;100450.74;4933062;58;1141113;-74
2023/07/13 09:00:58;;;;;;;7.53;1.80;;;;;;;25.07;100.00;100447.37;4923586;58;1140827;-72
2023/07/13 09:06:04;;;;;;;;;;;;;;;24.99;100.00;100446.80;5010846;57;1140959;-72
2023/07/13 09:11:46;;;;;;;6.03;2.12;;;;;;;24.83;100.00;100457.02;5065805;56;978035;-72
2023/07/13 09:16:52;;;;;;;2.77;2.10;;;;;;;24.52;100.00;100457.73;4981000;57;1138770;-74
2023/07/13 09:21:59;;;;;;;5.53;2.00;;;;;;;24.36;100.00;100451.94;5025878;56;1141408;-73
2023/07/13 09:27:21;;;;;;;5.33;2.37;;;;;;;24.15;100.00;100455.66;4986053;57;1140936;-73
2023/07/13 09:32:27;;;;;;;;;;;;;;;23.97;100.00;100459.53;5057520;57;1140941;-73
2023/07/13 09:37:33;;;;;;;6.90;1.98;;;;;;;23.97;100.00;100459.02;5072528;56;978361;-73
2023/07/13 09:42:39;;;;;;;5.53;2.27;;;;;;;23.98;100.00;100454.44;5073795;57;1138940;-73
2023/07/13 09:47:45;;;;;;;7.97;2.45;;;;;;;24.03;100.00;100460.03;5052701;57;1140877;-71
2023/07/13 09:52:54;;;;;;;7.12;2.20;;;;;;;24.03;100.00;100461.39;5054115;56;1140598;-73
2023/07/13 09:58:00;;;;;;;3.80;2.27;;;;;;;24.27;100.00;100456.75;5073612;57;1140807;-73
2023/07/13 10:03:22;;;;;;;3.27;1.70;;;;;;;24.57;100.00;100440.05;5013753;57;1141156;-69
2023/07/13 10:08:32;;;;;;;9.90;1.92;;;;;;;24.87;100.00;100449.31;5006923;57;1140839;-71
2023/07/13 10:13:44;;;;;;;3.10;1.80;;;;;;;24.95;100.00;100450.45;5019623;57;1141010;-73
2023/07/13 10:18:57;;;;;;;4.27;2.00;;;;;;;24.90;100.00;100444.28;5024833;57;1140972;-73
2023/07/13 10:24:22;;;;;;;6.92;2.27;;;;;;;25.04;100.00;100444.29;5032659;56;1140965;-74
2023/07/13 10:29:33;;;;;;;2.35;1.80;;;;;;;25.15;100.00;100449.84;4975114;57;1140865;-74
2023/07/13 10:34:39;;;;;;;2.12;1.70;;;;;;;25.19;100.00;100456.50;4971140;57;1141176;-71
2023/07/13 10:39:46;;;;;;;5.92;1.95;;;;;;;25.08;100.00;100469.85;5064773;56;1141121;-74
2023/07/13 10:44:52;;;;;;;5.22;2.15;;;;;;;24.96;100.00;100465.64;4989004;56;1141272;-73
2023/07/13 10:50:00;;;;;;;3.58;2.08;;;;;;;24.89;100.00;100468.88;5037202;56;1140927;-76
2023/07/13 10:55:08;;;;;;;2.05;1.47;;;;;;;24.79;100.00;100462.55;5063680;56;1140984;-76
2023/07/13 11:00:19;;;;;;;4.95;1.92;;;;;;;24.76;100.00;100462.12;5052020;56;1140979;-72
2023/07/13 11:05:30;;;;;;;5.90;2.00;;;;;;;24.76;100.00;100462.12;5040287;57;1141146;-73
2023/07/13 11:10:54;;;;;;;8.03;2.02;;;;;;;25.01;100.00;100459.07;4909610;57;1188349;-73
2023/07/13 11:16:00;;;;;;;4.05;1.82;;;;;;;25.38;100.00;100456.58;4870206;59;1141126;-74
2023/07/13 11:21:26;;;;;;;4.45;2.10;;;;;;;25.57;87.24;100456.47;4869526;58;1141021;-70
2023/07/13 11:26:52;;;;;;;4.12;1.90;;;;;;;25.53;85.55;100457.95;4930264;58;1138914;-72
2023/07/13 11:32:01;;;;;;;4.25;1.90;;;;;;;25.35;87.07;100464.64;4930301;56;1138840;-77
2023/07/13 11:37:20;;;;;;;3.77;1.82;;;;;;;25.31;88.50;100464.76;4948150;58;1139077;-75
2023/07/13 11:42:26;;;;;;;3.90;1.55;;;;;;;25.44;87.26;100458.44;4914522;58;1138758;-71
2023/07/13 11:47:32;;;;;;;5.94;1.68;;;;;;;25.63;86.17;100461.58;4868831;58;1138942;-70
2023/07/13 11:52:39;;;;;;;5.37;2.05;;;;;;;25.47;80.69;100452.06;4970138;57;1138765;-72
2023/07/13 11:57:58;;;;;;;3.35;1.35;;;;;;;25.21;77.60;100469.78;4931001;57;1138856;-72
2023/07/13 12:03:06;;;;;;;2.12;1.35;;;;;;;25.02;79.33;100466.15;4930054;57;1139016;-71
2023/07/13 12:08:12;;;;;;;8.48;1.77;;;;;;;25.00;81.64;100471.46;4975968;56;1138894;-74
2023/07/13 12:13:18;;;;;;;9.80;2.20;;;;;;;25.09;83.47;100456.63;4984848;57;1138642;-74
2023/07/13 12:18:28;;;;;;;5.92;2.20;;;;;;;25.41;84.37;100462.41;4913213;57;1138754;-75
2023/07/13 12:23:37;;;;;;;3.47;1.87;;;;;;;25.74;80.99;100453.27;4988179;57;1138700;-74
2023/07/13 12:28:56;;;;;;;2.70;1.70;;;;;;;26.12;81.54;100447.23;4995292;57;1138909;-77
2023/07/13 12:34:20;;;;;;;4.10;1.72;;;;;;;26.45;79.02;100444.73;4948249;57;1138793;-74
2023/07/13 12:39:48;;;;;;;2.77;1.77;;;;;;;26.49;70.12;100453.56;4990361;57;1139028;-71
2023/07/13 12:45:06;;;;;;;4.62;1.90;;;;;;;26.38;66.59;100450.24;4987425;57;1138773;-75
2023/07/13 12:50:23;;;;;;;4.90;1.32;;;;;;;26.26;62.03;100446.06;4957683;57;1140393;-72
2023/07/13 12:55:33;;;;;;;1.42;1.32;;;;;;;26.29;63.98;100439.36;4914817;56;1138755;-74
2023/07/13 13:00:39;;;;;;;2.58;1.42;;;;;;;26.39;62.99;100440.23;4941385;56;1138862;-71
2023/07/13 13:05:45;;;;;;;3.92;1.07;;;;;;;26.59;61.60;100434.88;4979013;57;1138486;-74
2023/07/13 13:10:51;;;;;;;1.75;1.20;;;;;;;26.86;62.23;100428.62;4974656;57;1138883;-76
2023/07/13 13:15:57;;;;;;;3.10;1.30;;;;;;;27.07;60.75;100421.08;4986013;57;1138670;-74
2023/07/13 13:21:03;;;;;;;1.82;1.35;;;;;;;27.35;60.30;100422.66;4957863;57;1138543;-74
2023/07/13 13:26:16;;;;;;;1.40;0.93;;;;;;;27.23;50.69;100429.41;5089728;57;1138529;-73
2023/07/13 13:31:22;;;;;;;4.72;1.75;;;;;;;27.13;49.69;100428.31;4846864;58;1138875;-72
2023/07/13 13:36:28;;;;;;;9.73;1.50;;;;;;;27.13;49.77;100425.59;4997916;57;1138876;-73
2023/07/13 13:41:33;;;;;;;6.15;1.10;;;;;;;27.24;49.85;100413.95;5017510;57;1138956;-73
2023/07/13 13:46:39;;;;;;;1.57;0.90;;;;;;;27.43;47.56;100422.88;4995497;57;1139213;-72
2023/07/13 13:51:45;;;;;;;6.80;1.30;;;;;;;27.59;45.59;100421.72;4971843;57;1139023;-74
2023/07/13 13:56:53;;;;;;;1.72;1.00;;;;;;;27.53;42.33;100434.83;4998794;57;1138898;-75
2023/07/13 14:02:00;;;;;;;6.65;1.20;;;;;;;27.47;43.33;100433.58;5025038;57;1138775;-73
2023/07/13 14:07:06;;;;;;;3.00;1.10;;;;;;;27.27;43.62;100436.05;5024691;57;1139036;-71
2023/07/13 14:12:12;;;;;;;1.20;1.10;;;;;;;27.25;41.96;100438.16;4995201;57;1138896;-71
2023/07/13 14:17:24;;;;;;;3.10;0.85;;;;;;;27.22;44.07;100437.78;4929540;58;1138733;-70
2023/07/13 14:22:31;;;;;;;3.33;1.10;;;;;;;27.43;45.68;100441.36;5006047;57;1139291;-74
2023/07/13 14:27:43;;;;;;;1.07;0.88;;;;;;;27.51;45.97;100441.55;5014264;57;1138810;-73
2023/07/13 14:32:55;;;;;;;1.93;1.37;;;;;;;27.56;42.52;100451.20;4925044;57;1138805;-75
2023/07/13 14:38:02;;;;;;;3.98;1.00;;;;;;;27.57;45.20;100445.56;4912079;58;1139154;-71
2023/07/13 14:43:14;;;;;;;1.55;1.00;;;;;;;27.66;44.72;100438.73;4964411;57;1138846;-72
2023/07/13 14:48:23;;;;;;;2.98;1.22;;;;;;;27.77;42.69;100438.47;4984312;57;1138826;-71
2023/07/13 14:53:29;;;;;;;1.32;1.10;;;;;;;27.81;43.09;100438.81;4930745;58;1138496;-73
2023/07/13 14:58:35;;;;;;;2.05;1.32;;;;;;;27.88;42.81;100439.02;4934985;58;1138685;-71
2023/07/13 15:03:44;;;;;;;1.80;0.95;;;;;;;27.96;40.65;100443.27;4942157;58;1138873;-73
2023/07/13 15:08:50;;;;;;;1.82;1.07;;;;;;;27.95;42.60;100439.75;4917134;58;1138830;-73
2023/07/13 15:13:56;;;;;;;7.17;1.15;;;;;;;27.92;42.87;100436.66;4941664;57;1138991;-74
2023/07/13 15:19:02;;;;;;;7.15;1.15;;;;;;;27.91;44.11;100429.04;5114674;56;1138741;-72
2023/07/13 15:24:11;;;;;;;2.98;1.37;;;;;;;28.02;43.76;100427.38;5074437;56;1138462;-74
2023/07/13 15:29:18;;;;;;;3.83;1.02;;;;;;;27.96;41.83;100431.03;5051162;56;1138706;-72
2023/07/13 15:34:27;;;;;;;4.20;1.40;;;;;;;27.69;42.74;100437.44;5046651;56;1138746;-75
2023/07/13 15:39:33;;;;;;;1.42;1.30;;;;;;;27.31;42.38;100437.78;5008349;56;1138673;-71
2023/07/13 15:44:38;;;;;;;5.73;1.20;;;;;;;27.32;44.37;100431.29;5032954;56;1139071;-72
2023/07/13 15:49:48;;;;;;;1.60;1.50;;;;;;;27.39;44.13;100434.73;5068289;56;1139125;-75
2023/07/13 15:55:02;;;;;;;2.47;1.23;;;;;;;27.41;43.49;100432.61;5044578;56;1138743;-74
2023/07/13 16:00:27;;;;;;;3.85;1.77;;;;;;;27.54;42.46;100432.41;5036194;56;1138674;-71
2023/07/13 16:05:37;;;;;;;1.50;0.98;;;;;;;27.47;42.93;100440.37;4995672;57;1139020;-72
2023/07/13 16:10:45;;;;;;;1.30;0.93;;;;;;;27.47;42.35;100434.94;5016852;56;1138909;-72
2023/07/13 16:15:56;;;;;;;2.50;1.20;;;;;;;27.51;41.45;100432.03;4991140;57;1138929;-72
2023/07/13 16:21:12;;;;;;;2.10;1.17;;;;;;;27.55;42.47;100438.67;4932838;57;1138800;-75
2023/07/13 16:26:46;;;;;;;1.85;1.15;;;;;;;27.40;41.55;100437.74;4954625;58;1138992;-74
2023/07/13 16:32:08;;;;;;;2.33;1.22;;;;;;;27.28;42.48;100453.17;4970861;57;1139239;-74
2023/07/13 16:37:34;;;;;;;3.37;1.20;;;;;;;27.30;42.49;100451.05;4970282;57;1138656;-73
2023/07/13 16:42:45;;;;;;;1.93;1.17;;;;;;;27.22;42.92;100450.00;5013677;57;1139125;-72
2023/07/13 16:48:10;;;;;;;6.22;1.45;;;;;;;27.09;41.52;100456.44;4938300;57;1138701;-74
2023/07/13 16:53:25;;;;;;;3.12;1.37;;;;;;;26.82;42.29;100457.27;4906841;58;1138948;-71
2023/07/13 16:58:32;;;;;;;2.75;1.52;;;;;;;26.72;43.29;100453.44;4953861;56;1138832;-72
2023/07/13 17:03:39;;;;;;;3.12;1.52;;;;;;;26.56;42.68;100458.41;4925989;58;1138885;-74
2023/07/13 17:08:45;;;;;;;3.02;1.20;;;;;;;26.45;43.35;100463.20;4935975;58;1138768;-71
2023/07/13 17:13:51;;;;;;;2.08;1.50;;;;;;;26.41;44.83;100470.67;4918361;58;1138613;-72
2023/07/13 17:18:58;;;;;;;1.83;1.60;;;;;;;26.42;45.38;100469.62;4922548;58;1138763;-71
2023/07/13 17:24:24;;;;;;;3.03;2.00;;;;;;;26.51;45.68;100469.62;4949419;58;1139041;-72
2023/07/13 17:29:29;;;;;;;4.67;1.65;;;;;;;26.58;46.21;100460.90;4973250;57;1139030;-72
2023/07/13 17:34:45;;;;;;;2.87;1.47;;;;;;;26.66;46.37;100464.66;5010545;57;1138961;-71
2023/07/13 17:39:43;;;;;;;1.40;1.02;;;;;;;26.67;44.85;100460.89;4817132;58;1138818;-73
2023/07/13 17:44:49;;;;;;;1.75;1.20;;;;;;;26.43;44.76;100479.41;5010679;57;1138773;-75
2023/07/13 17:49:56;;;;;;;8.33;1.40;;;;;;;26.21;45.50;100483.84;5010776;57;1138695;-72
2023/07/13 17:55:04;;;;;;;4.20;1.27;;;;;;;26.09;46.70;100480.73;4822361;58;1138855;-70
2023/07/13 18:00:27;;;;;;;2.17;1.25;;;;;;;26.02;46.76;100478.58;4935925;57;1138774;-72
2023/07/13 18:05:19;;;;;;;1.80;1.00;;;;;;;25.96;46.88;100484.37;4938160;57;1138821;-72
2023/07/13 18:10:25;;;;;;;1.80;1.15;;;;;;;26.00;47.18;100480.67;4949443;57;1138888;-74
2023/07/13 18:15:34;;;;;;;5.03;1.95;;;;;;;25.87;46.62;100482.97;4969198;57;1138750;-73
2023/07/13 18:20:44;;;;;;;3.08;1.20;;;;;;;25.77;47.20;100487.53;4954954;57;1138954;-73
2023/07/13 18:25:52;;;;;;;2.53;1.47;;;;;;;25.64;47.25;100489.50;5000708;57;1138967;-73
2023/07/13 18:31:00;;;;;;;3.97;1.67;;;;;;;25.44;47.22;100497.17;4989042;57;1139105;-72
2023/07/13 18:36:08;;;;;;;3.45;1.45;;;;;;;25.27;47.69;100493.83;4877537;58;1138902;-73
2023/07/13 18:41:20;;;;;;;1.25;1.12;;;;;;;25.12;47.96;100501.70;5022793;57;1138753;-73
2023/07/13 18:46:29;;;;;;;5.87;1.42;;;;;;;25.02;48.18;100501.33;5010785;57;1138663;-74
2023/07/13 18:51:35;;;;;;;4.20;2.12;;;;;;;24.95;48.32;100503.73;4985534;57;1138544;-73
2023/07/13 18:56:41;;;;;;;7.40;1.63;;;;;;;24.85;48.63;100510.40;4988002;57;1138989;-73
2023/07/13 19:01:47;;;;;;;3.30;1.75;;;;;;;24.75;49.18;100511.89;5023071;57;1138809;-74
2023/07/13 19:06:53;;;;;;;4.00;1.90;;;;;;;24.62;49.54;100520.00;5094048;57;1139101;-73
2023/07/13 19:11:59;;;;;;;5.58;1.80;;;;;;;24.48;49.98;100528.66;5094337;57;1138914;-74
2023/07/13 19:17:07;;;;;;;21.55;8.50;;;;;;;24.35;50.73;100534.91;5114079;57;1138912;-71
2023/07/13 19:22:16;;;;;;;17.07;7.10;;;;;;;24.33;51.11;100541.55;4842812;58;1140984;-73
2023/07/13 19:27:22;;;;;;;14.65;6.05;;;;;;;24.32;51.40;100537.19;4997534;57;1140646;-72
2023/07/13 19:32:27;;;;;;;10.93;5.85;;;;;;;24.35;53.02;100553.00;4938530;58;1140937;-75
2023/07/13 19:37:42;;;;;;;14.07;7.95;;;;;;;24.45;54.81;100555.59;4986396;57;1140912;-71
2023/07/13 19:42:42;;;;;;;12.28;5.65;;;;;;;24.51;56.45;100565.58;4878818;58;1140924;-71
2023/07/13 19:47:49;;;;;;;13.03;5.00;;;;;;;24.54;57.60;100563.81;5087866;57;1140748;-70
2023/07/13 19:53:01;;;;;;;10.13;7.67;;;;;;;24.55;58.65;100568.70;4986454;57;1141056;-75
2023/07/13 19:58:04;;;;;;;10.72;7.60;;;;;;;24.49;59.51;100577.64;4973416;57;1140910;-69
2023/07/13 20:03:09;;;;;;;10.90;3.80;;;;;;;24.33;60.31;100578.88;5006008;57;1140772;-74
2023/07/13 20:08:19;;;;;;;7.03;4.20;;;;;;;24.22;61.07;100588.94;4961428;57;1140757;-71
2023/07/13 20:13:31;;;;;;;15.78;6.17;;;;;;;24.19;61.84;100589.34;4972215;57;1138902;-72
2023/07/13 20:18:32;;;;;;;21.25;6.87;;;;;;;24.15;62.62;100582.67;4976988;57;1140838;-69
2023/07/13 20:23:38;;;;;;;13.40;6.90;;;;;;;24.03;63.14;100585.67;4984795;57;1140974;-74
2023/07/13 20:28:44;;;;;;;21.80;7.04;;;;;;;23.89;63.82;100590.73;4934826;58;1141001;-74
2023/07/13 20:33:50;;;;;;;15.03;6.47;;;;;;;23.77;64.46;100599.44;4903705;58;1140920;-75
2023/07/13 20:38:56;;;;;;;16.10;5.67;;;;;;;23.66;65.22;100601.90;4937303;58;1141105;-72
2023/07/13 20:44:02;;;;;;;18.55;7.03;;;;;;;23.60;66.34;100606.74;4949651;57;1141005;-72
2023/07/13 20:49:09;;;;;;;21.02;7.80;;;;;;;23.53;67.11;100613.45;4793706;58;1140807;-73
2023/07/13 20:54:19;;;;;;;20.17;7.53;;;;;;;23.42;67.31;100613.48;4999065;57;1140709;-73
2023/07/13 20:59:23;;;;;;;16.55;7.08;;;;;;;23.38;68.09;100618.95;4998325;57;1140772;-72
2023/07/13 21:04:28;;;;;;;14.47;6.70;;;;;;;23.32;68.25;100622.98;4998395;57;1141178;-72
2023/07/13 21:09:34;;;;;;;16.46;6.14;;;;;;;23.24;68.46;100627.19;4998483;57;1140950;-72
2023/07/13 21:14:40;;;;;;;12.30;5.45;;;;;;;23.14;68.64;100633.78;5017899;57;1140839;-74
2023/07/13 21:19:45;;;;;;;12.10;6.05;;;;;;;23.04;68.05;100641.41;4950086;57;1141093;-75
2023/07/13 21:24:51;;;;;;;14.10;4.75;;;;;;;22.97;67.94;100638.33;4992208;57;1140674;-71
2023/07/13 21:29:57;;;;;;;8.65;4.17;;;;;;;22.84;68.34;100640.41;5018120;57;1140806;-74
2023/07/13 21:35:05;;;;;;;8.13;4.70;;;;;;;22.77;68.58;100640.86;4998828;57;1138630;-72
2023/07/13 21:40:19;;;;;;;10.53;4.58;;;;;;;22.65;67.72;100650.48;4998579;57;1138898;-73
2023/07/13 21:45:27;;;;;;;3.67;2.42;;;;;;;21.86;67.02;100677.91;5017709;57;1140968;-70
2023/07/13 21:50:57;;;;;;;9.65;2.62;;;;;;;21.14;65.96;100677.71;4997192;57;1138719;-72
2023/07/13 21:56:04;;;;;;;3.83;2.60;;;;;;;20.94;66.34;100676.05;4933857;58;1138803;-76
2023/07/13 22:01:25;;;;;;;5.83;2.35;;;;;;;20.87;66.49;100680.50;4937498;58;1138831;-74
2023/07/13 22:06:32;;;;;;;4.00;2.77;;;;;;;20.73;66.64;100692.05;4917803;58;1138711;-74
2023/07/13 22:11:38;;;;;;;5.10;2.63;;;;;;;20.65;66.96;100690.24;4917905;58;1138964;-74
2023/07/13 22:16:44;;;;;;;7.28;2.30;;;;;;;20.56;67.44;100709.64;4937224;58;1138938;-71
2023/07/13 22:21:49;;;;;;;4.78;2.98;;;;;;;20.43;68.03;100713.43;4997652;57;1138991;-73
2023/07/13 22:26:55;;;;;;;7.13;2.57;;;;;;;20.35;68.38;100713.44;4998922;57;1138783;-69
2023/07/13 22:32:01;;;;;;;2.65;2.12;;;;;;;20.27;68.96;100717.53;5074589;57;1138848;-75
2023/07/13 22:37:09;;;;;;;4.65;2.33;;;;;;;20.05;69.61;100704.38;5054701;57;1138771;-74
2023/07/13 22:42:14;;;;;;;3.22;1.57;;;;;;;20.09;70.00;100726.35;5054356;57;1139002;-71
2023/07/13 22:47:21;;;;;;;2.62;1.67;;;;;;;20.04;70.38;100724.18;5074435;57;1138560;-74
2023/07/13 22:52:27;;;;;;;2.35;1.65;;;;;;;20.03;70.57;100726.03;5054581;57;1138654;-74
2023/07/13 22:57:33;;;;;;;9.35;2.40;;;;;;;20.01;70.90;100720.53;5054931;57;1138703;-72
2023/07/13 23:02:38;;;;;;;5.90;2.37;;;;;;;20.16;71.50;100723.30;5054893;57;1138753;-76
2023/07/13 23:07:44;;;;;;;2.55;1.85;;;;;;;20.21;71.26;100723.09;5074671;57;1138746;-73
2023/07/13 23:12:51;;;;;;;7.58;1.77;;;;;;;20.23;71.58;100721.58;5054870;57;1138984;-73